Lake Hamilton, FL (33851)

6:15 PM EST on March 02, 2015 (GMT -0500)
Dundee Elementary Academy WeatherSTEM | Change Station
CLOSE
Current Station
Personal Weather Station
Location: Dundee, FL
Elevation: 170 ft
Nearby Weather Stations

Elev 170 ft 28.03 °N, 81.62 °W | Updated 11 minutes ago

Mostly Cloudy
Mostly Cloudy
80.2 °F
Feels Like 82 °F
N
2.0
Wind Variable Wind from NE
Gusts 5.0 mph

Today
High -- | Low -- °F
--% Chance of Precip.
Yesterday
High -- | Low -- °F
Precip. -- in
6:50 AM 6:27 PM
Waxing Gibbous, 93% visible
Pressure 30.20 in
Visibility 10.0 miles
Clouds Clear
Heat Index 82 °F
Dew Point 65 °F
Humidity 61%
Rainfall 0.00 in
Snow Depth Not available.
UV 0 out of 12
Pollen 10.70 out of 12
Air Quality Not available.
Flu Activity Not available.
METAR KGIF 022253Z AUTO 01005KT 10SM CLR 27/18 A3021 RMK AO2 SLP227 T02670178

More Conditions Fewer Conditions

Pressure 30.20 in
Visibility 10.0 miles
Clouds Clear
Heat Index 82 °F
Dew Point 65 °F
Humidity 61%
Rainfall 0.00 in
Snow Depth Not available.
UV 0 out of 12
Pollen 10.70 out of 12
Air Quality Not available.
Flu Activity Not available.
METAR KGIF 022253Z AUTO 01005KT 10SM CLR 27/18 A3021 RMK AO2 SLP227 T02670178

More Conditions Fewer Conditions

10-Day Weather Forecast

Almanac

Astronomy

Mar. 02, 2015 Rise Set
Actual Time
Civil Twilight
Nautical Twilight
Astronomical Twilight
Moon
Length of Visible Light
Length of Day
Tomorrow will be .
, % of the Moon is Illuminated

Today's Extremes

State Highs State Lows

Community

WunderPhotos

Upload Photos

1,801,995 photos uploaded!

WunderBlogs® & News

Nearby

Air Quality

  Air Quality AQ Index Pollutant
Not available.

Snow Depth

Station Depth Elevation

Earthquake Activity

City Distance Mag. Time & Date
Minimum magnitude displayed is 2.5.

Coastal Water Temperatures

Place Temperature

Nearby Weather Stations